sensor_id;sensor_type;location;lat;lon;timestamp;pressure;altitude;pressure_sealevel;temperature;humidity
63556;BME280;49700;48.072;7.800;2022-10-26T00:02:20;99403.91;;;14.09;nan
63556;BME280;49700;48.072;7.800;2022-10-26T00:04:46;99407.25;;;14.11;nan
63556;BME280;49700;48.072;7.800;2022-10-26T00:07:11;99409.78;;;14.13;nan
63556;BME280;49700;48.072;7.800;2022-10-26T00:09:36;99414.00;;;14.15;nan
63556;BME280;49700;48.072;7.800;2022-10-26T00:12:02;99404.84;;;14.20;nan
63556;BME280;49700;48.072;7.800;2022-10-26T00:14:29;99406.38;;;14.22;nan
63556;BME280;49700;48.072;7.800;2022-10-26T00:16:54;99405.19;;;14.26;nan
63556;BME280;49700;48.072;7.800;2022-10-26T00:19:19;99391.84;;;14.28;nan
63556;BME280;49700;48.072;7.800;2022-10-26T00:21:45;99399.66;;;14.29;nan
63556;BME280;49700;48.072;7.800;2022-10-26T00:24:11;99399.66;;;14.29;nan
63556;BME280;49700;48.072;7.800;2022-10-26T00:26:37;99401.19;;;14.32;nan
63556;BME280;49700;48.072;7.800;2022-10-26T00:29:03;99399.28;;;14.34;nan
63556;BME280;49700;48.072;7.800;2022-10-26T00:31:28;99390.22;;;14.36;nan
63556;BME280;49700;48.072;7.800;2022-10-26T00:33:54;99403.44;;;14.36;nan
63556;BME280;49700;48.072;7.800;2022-10-26T00:36:21;99409.97;;;14.32;nan
63556;BME280;49700;48.072;7.800;2022-10-26T00:38:50;99406.75;;;14.29;nan
63556;BME280;49700;48.072;7.800;2022-10-26T00:41:19;99409.63;;;14.26;nan
63556;BME280;49700;48.072;7.800;2022-10-26T00:43:45;99403.63;;;14.24;nan
63556;BME280;49700;48.072;7.800;2022-10-26T00:46:14;99400.84;;;14.25;nan
63556;BME280;49700;48.072;7.800;2022-10-26T00:48:44;99376.50;;;14.22;nan
63556;BME280;49700;48.072;7.800;2022-10-26T00:51:41;99387.06;;;14.22;nan
63556;BME280;49700;48.072;7.800;2022-10-26T00:54:17;99400.91;;;14.14;nan
63556;BME280;49700;48.072;7.800;2022-10-26T00:56:44;99408.75;;;14.04;nan
63556;BME280;49700;48.072;7.800;2022-10-26T00:59:12;99404.66;;;14.00;nan
63556;BME280;49700;48.072;7.800;2022-10-26T01:01:40;99424.13;;;13.99;nan
63556;BME280;49700;48.072;7.800;2022-10-26T01:04:07;99424.47;;;13.94;nan
63556;BME280;49700;48.072;7.800;2022-10-26T01:06:33;99432.91;;;13.88;nan
63556;BME280;49700;48.072;7.800;2022-10-26T01:09:00;99434.81;;;13.86;nan
63556;BME280;49700;48.072;7.800;2022-10-26T01:11:25;99445.25;;;13.88;nan
63556;BME280;49700;48.072;7.800;2022-10-26T01:13:52;99431.22;;;13.87;nan
63556;BME280;49700;48.072;7.800;2022-10-26T01:21:47;99441.19;;;13.84;nan
63556;BME280;49700;48.072;7.800;2022-10-26T01:41:09;99480.78;;;13.95;nan
63556;BME280;49700;48.072;7.800;2022-10-26T01:43:40;99508.88;;;13.96;nan
63556;BME280;49700;48.072;7.800;2022-10-26T01:46:08;99508.75;;;13.98;nan
63556;BME280;49700;48.072;7.800;2022-10-26T01:48:36;99509.47;;;14.00;nan
63556;BME280;49700;48.072;7.800;2022-10-26T01:51:03;99511.97;;;14.01;nan
63556;BME280;49700;48.072;7.800;2022-10-26T01:53:30;99509.22;;;14.03;nan
63556;BME280;49700;48.072;7.800;2022-10-26T01:55:56;99540.91;;;14.03;nan
63556;BME280;49700;48.072;7.800;2022-10-26T02:08:54;99550.25;;;13.95;nan
63556;BME280;49700;48.072;7.800;2022-10-26T02:11:37;99548.59;;;13.94;nan
63556;BME280;49700;48.072;7.800;2022-10-26T02:15:03;99536.38;;;13.93;nan
63556;BME280;49700;48.072;7.800;2022-10-26T02:17:07;99539.94;;;13.92;nan
63556;BME280;49700;48.072;7.800;2022-10-26T02:19:46;99538.88;;;13.95;nan
63556;BME280;49700;48.072;7.800;2022-10-26T02:22:44;99520.97;;;13.99;nan
63556;BME280;49700;48.072;7.800;2022-10-26T02:25:20;99533.09;;;14.01;nan
63556;BME280;49700;48.072;7.800;2022-10-26T02:27:52;99545.22;;;14.04;nan
63556;BME280;49700;48.072;7.800;2022-10-26T02:30:19;99554.84;;;14.05;nan
63556;BME280;49700;48.072;7.800;2022-10-26T02:32:48;99532.75;;;14.06;nan
63556;BME280;49700;48.072;7.800;2022-10-26T02:35:16;99530.94;;;14.06;nan
63556;BME280;49700;48.072;7.800;2022-10-26T02:37:45;99515.31;;;14.03;nan
63556;BME280;49700;48.072;7.800;2022-10-26T02:40:13;99492.53;;;14.02;nan
63556;BME280;49700;48.072;7.800;2022-10-26T02:42:43;99457.38;;;14.02;nan
63556;BME280;49700;48.072;7.800;2022-10-26T02:45:12;99447.75;;;14.01;nan
63556;BME280;49700;48.072;7.800;2022-10-26T02:47:39;99430.50;;;13.97;nan
63556;BME280;49700;48.072;7.800;2022-10-26T02:50:05;99443.81;;;13.95;nan
63556;BME280;49700;48.072;7.800;2022-10-26T02:52:34;99453.03;;;14.01;nan
63556;BME280;49700;48.072;7.800;2022-10-26T02:55:14;99485.34;;;14.04;nan
63556;BME280;49700;48.072;7.800;2022-10-26T02:57:46;99494.78;;;14.07;nan
63556;BME280;49700;48.072;7.800;2022-10-26T03:00:16;99493.69;;;14.09;nan
63556;BME280;49700;48.072;7.800;2022-10-26T03:02:44;99505.25;;;14.08;nan
63556;BME280;49700;48.072;7.800;2022-10-26T03:05:29;99501.75;;;14.08;nan
63556;BME280;49700;48.072;7.800;2022-10-26T03:07:58;99513.28;;;14.07;nan
63556;BME280;49700;48.072;7.800;2022-10-26T03:10:24;99501.28;;;14.03;nan
63556;BME280;49700;48.072;7.800;2022-10-26T03:12:50;99494.34;;;14.02;nan
63556;BME280;49700;48.072;7.800;2022-10-26T03:15:16;99505.59;;;14.04;nan
63556;BME280;49700;48.072;7.800;2022-10-26T03:17:41;99501.03;;;14.06;nan
63556;BME280;49700;48.072;7.800;2022-10-26T03:20:07;99495.66;;;14.07;nan
63556;BME280;49700;48.072;7.800;2022-10-26T03:22:33;99484.13;;;14.08;nan
63556;BME280;49700;48.072;7.800;2022-10-26T03:24:58;99469.34;;;14.06;nan
63556;BME280;49700;48.072;7.800;2022-10-26T03:27:24;99463.34;;;14.04;nan
63556;BME280;49700;48.072;7.800;2022-10-26T03:29:51;99471.16;;;14.05;nan
63556;BME280;49700;48.072;7.800;2022-10-26T03:32:16;99478.25;;;14.05;nan
63556;BME280;49700;48.072;7.800;2022-10-26T03:34:41;99467.69;;;14.05;nan
63556;BME280;49700;48.072;7.800;2022-10-26T03:37:07;99463.47;;;14.02;nan
63556;BME280;49700;48.072;7.800;2022-10-26T03:39:32;99455.56;;;14.02;nan
63556;BME280;49700;48.072;7.800;2022-10-26T03:41:58;99441.06;;;13.97;nan
63556;BME280;49700;48.072;7.800;2022-10-26T03:44:23;99436.38;;;13.89;nan
63556;BME280;49700;48.072;7.800;2022-10-26T03:46:49;99454.03;;;13.88;nan
63556;BME280;49700;48.072;7.800;2022-10-26T03:49:14;99453.88;;;13.90;nan
63556;BME280;49700;48.072;7.800;2022-10-26T03:51:39;99452.69;;;13.94;nan
63556;BME280;49700;48.072;7.800;2022-10-26T03:54:05;99460.22;;;13.99;nan
63556;BME280;49700;48.072;7.800;2022-10-26T03:56:31;99457.22;;;14.03;nan
63556;BME280;49700;48.072;7.800;2022-10-26T03:58:56;99452.53;;;14.07;nan
63556;BME280;49700;48.072;7.800;2022-10-26T04:01:22;99455.78;;;14.10;nan
63556;BME280;49700;48.072;7.800;2022-10-26T04:03:48;99458.16;;;14.13;nan
63556;BME280;49700;48.072;7.800;2022-10-26T04:06:13;99457.34;;;14.13;nan
63556;BME280;49700;48.072;7.800;2022-10-26T04:08:39;99465.25;;;14.13;nan
63556;BME280;49700;48.072;7.800;2022-10-26T04:11:04;99471.50;;;14.12;nan
63556;BME280;49700;48.072;7.800;2022-10-26T04:13:29;99467.06;;;14.12;nan
63556;BME280;49700;48.072;7.800;2022-10-26T04:15:55;99459.97;;;14.13;nan
63556;BME280;49700;48.072;7.800;2022-10-26T04:18:20;99463.47;;;14.13;nan
63556;BME280;49700;48.072;7.800;2022-10-26T04:20:46;99447.72;;;14.12;nan
63556;BME280;49700;48.072;7.800;2022-10-26T04:23:13;99447.84;;;14.10;nan
63556;BME280;49700;48.072;7.800;2022-10-26T04:25:40;99450.59;;;14.09;nan
63556;BME280;49700;48.072;7.800;2022-10-26T04:28:06;99459.63;;;14.06;nan
63556;BME280;49700;48.072;7.800;2022-10-26T04:30:33;99465.03;;;14.05;nan
63556;BME280;49700;48.072;7.800;2022-10-26T04:32:59;99459.03;;;14.03;nan
63556;BME280;49700;48.072;7.800;2022-10-26T04:35:25;99469.97;;;13.98;nan
63556;BME280;49700;48.072;7.800;2022-10-26T04:37:50;99476.31;;;13.95;nan
63556;BME280;49700;48.072;7.800;2022-10-26T04:40:16;99484.38;;;13.94;nan
63556;BME280;49700;48.072;7.800;2022-10-26T04:42:45;99481.75;;;13.94;nan
63556;BME280;49700;48.072;7.800;2022-10-26T04:45:13;99490.59;;;13.93;nan
63556;BME280;49700;48.072;7.800;2022-10-26T04:47:39;99489.78;;;13.92;nan
63556;BME280;49700;48.072;7.800;2022-10-26T04:50:06;99502.03;;;13.93;nan
63556;BME280;49700;48.072;7.800;2022-10-26T04:52:32;99486.06;;;13.95;nan
63556;BME280;49700;48.072;7.800;2022-10-26T04:54:58;99486.88;;;13.95;nan
63556;BME280;49700;48.072;7.800;2022-10-26T04:57:23;99487.75;;;13.96;nan
63556;BME280;49700;48.072;7.800;2022-10-26T04:59:48;99489.41;;;13.97;nan
63556;BME280;49700;48.072;7.800;2022-10-26T05:02:14;99490.16;;;13.99;nan
63556;BME280;49700;48.072;7.800;2022-10-26T05:04:39;99482.34;;;13.98;nan
63556;BME280;49700;48.072;7.800;2022-10-26T05:07:05;99485.94;;;13.97;nan
63556;BME280;49700;48.072;7.800;2022-10-26T05:09:30;99492.16;;;13.95;nan
63556;BME280;49700;48.072;7.800;2022-10-26T05:11:56;99488.69;;;13.95;nan
63556;BME280;49700;48.072;7.800;2022-10-26T05:14:21;99500.22;;;13.94;nan
63556;BME280;49700;48.072;7.800;2022-10-26T05:16:46;99500.22;;;13.94;nan
63556;BME280;49700;48.072;7.800;2022-10-26T05:19:12;99513.53;;;13.92;nan
63556;BME280;49700;48.072;7.800;2022-10-26T05:21:37;99503.94;;;13.91;nan
63556;BME280;49700;48.072;7.800;2022-10-26T05:24:03;99511.97;;;13.90;nan
63556;BME280;49700;48.072;7.800;2022-10-26T05:26:28;99511.03;;;13.91;nan
63556;BME280;49700;48.072;7.800;2022-10-26T05:28:54;99510.16;;;13.90;nan
63556;BME280;49700;48.072;7.800;2022-10-26T05:31:19;99511.03;;;13.91;nan
63556;BME280;49700;48.072;7.800;2022-10-26T05:33:49;99523.25;;;13.92;nan
63556;BME280;49700;48.072;7.800;2022-10-26T05:36:16;99515.34;;;13.92;nan
63556;BME280;49700;48.072;7.800;2022-10-26T05:38:42;99517.97;;;13.92;nan
63556;BME280;49700;48.072;7.800;2022-10-26T05:41:07;99515.44;;;13.90;nan
63556;BME280;49700;48.072;7.800;2022-10-26T05:43:32;99518.09;;;13.90;nan
63556;BME280;49700;48.072;7.800;2022-10-26T05:45:58;99518.09;;;13.90;nan
63556;BME280;49700;48.072;7.800;2022-10-26T05:48:23;99524.25;;;13.91;nan
63556;BME280;49700;48.072;7.800;2022-10-26T05:50:49;99534.66;;;13.92;nan
63556;BME280;49700;48.072;7.800;2022-10-26T05:53:14;99526.88;;;13.91;nan
63556;BME280;49700;48.072;7.800;2022-10-26T05:55:40;99527.81;;;13.90;nan
63556;BME280;49700;48.072;7.800;2022-10-26T05:58:13;99541.03;;;13.90;nan
63556;BME280;49700;48.072;7.800;2022-10-26T06:01:12;99534.19;;;13.87;nan
63556;BME280;49700;48.072;7.800;2022-10-26T06:03:53;99543.19;;;13.85;nan
63556;BME280;49700;48.072;7.800;2022-10-26T06:06:21;99553.97;;;13.82;nan
63556;BME280;49700;48.072;7.800;2022-10-26T06:08:47;99569.00;;;13.81;nan
63556;BME280;49700;48.072;7.800;2022-10-26T06:11:12;99569.00;;;13.81;nan
63556;BME280;49700;48.072;7.800;2022-10-26T06:13:38;99570.66;;;13.82;nan
63556;BME280;49700;48.072;7.800;2022-10-26T06:16:24;99563.72;;;13.81;nan
63556;BME280;49700;48.072;7.800;2022-10-26T06:22:06;99569.22;;;13.78;nan
63556;BME280;49700;48.072;7.800;2022-10-26T06:25:06;99572.84;;;13.77;nan
63556;BME280;49700;48.072;7.800;2022-10-26T06:28:10;99580.88;;;13.76;nan
63556;BME280;49700;48.072;7.800;2022-10-26T06:30:40;99593.81;;;13.79;nan
63556;BME280;49700;48.072;7.800;2022-10-26T06:33:08;99590.13;;;13.81;nan
63556;BME280;49700;48.072;7.800;2022-10-26T06:38:13;99594.06;;;13.87;nan
63556;BME280;49700;48.072;7.800;2022-10-26T06:40:42;99589.53;;;13.89;nan
63556;BME280;49700;48.072;7.800;2022-10-26T06:43:21;99592.75;;;13.92;nan
63556;BME280;49700;48.072;7.800;2022-10-26T06:45:55;99595.06;;;13.97;nan
63556;BME280;49700;48.072;7.800;2022-10-26T06:48:26;99607.75;;;14.03;nan
63556;BME280;49700;48.072;7.800;2022-10-26T06:50:54;99609.09;;;14.09;nan
63556;BME280;49700;48.072;7.800;2022-10-26T06:53:30;99615.81;;;14.13;nan
63556;BME280;49700;48.072;7.800;2022-10-26T06:55:58;99612.81;;;14.17;nan
63556;BME280;49700;48.072;7.800;2022-10-26T06:58:28;99615.09;;;14.22;nan
63556;BME280;49700;48.072;7.800;2022-10-26T07:00:55;99607.06;;;14.24;nan
63556;BME280;49700;48.072;7.800;2022-10-26T07:03:21;99614.13;;;14.34;nan
63556;BME280;49700;48.072;7.800;2022-10-26T07:05:46;99626.84;;;14.41;nan
63556;BME280;49700;48.072;7.800;2022-10-26T07:08:12;99623.72;;;14.47;nan
63556;BME280;49700;48.072;7.800;2022-10-26T07:10:38;99630.97;;;14.56;nan
63556;BME280;49700;48.072;7.800;2022-10-26T07:13:08;99633.59;;;14.67;nan
63556;BME280;49700;48.072;7.800;2022-10-26T07:15:35;99634.53;;;14.77;nan
63556;BME280;49700;48.072;7.800;2022-10-26T07:18:05;99637.13;;;14.89;nan
63556;BME280;49700;48.072;7.800;2022-10-26T07:20:35;99639.03;;;14.98;nan
63556;BME280;49700;48.072;7.800;2022-10-26T07:23:01;99639.97;;;15.08;nan
63556;BME280;49700;48.072;7.800;2022-10-26T07:25:27;99647.00;;;15.19;nan
63556;BME280;49700;48.072;7.800;2022-10-26T07:27:59;99650.84;;;15.26;nan
63556;BME280;49700;48.072;7.800;2022-10-26T07:30:26;99657.44;;;15.32;nan
63556;BME280;49700;48.072;7.800;2022-10-26T07:33:03;99669.44;;;15.36;nan
63556;BME280;49700;48.072;7.800;2022-10-26T07:35:29;99673.06;;;15.35;nan
63556;BME280;49700;48.072;7.800;2022-10-26T07:37:56;99674.16;;;15.32;nan
63556;BME280;49700;48.072;7.800;2022-10-26T07:40:22;99677.78;;;15.31;nan
63556;BME280;49700;48.072;7.800;2022-10-26T07:42:47;99682.19;;;15.31;nan
63556;BME280;49700;48.072;7.800;2022-10-26T07:45:13;99686.41;;;15.33;nan
63556;BME280;49700;48.072;7.800;2022-10-26T07:47:38;99695.06;;;15.35;nan
63556;BME280;49700;48.072;7.800;2022-10-26T07:50:04;99694.97;;;15.37;nan
63556;BME280;49700;48.072;7.800;2022-10-26T07:52:30;99697.34;;;15.40;nan
63556;BME280;49700;48.072;7.800;2022-10-26T07:54:55;99699.59;;;15.44;nan
63556;BME280;49700;48.072;7.800;2022-10-26T07:57:21;99713.44;;;15.48;nan
63556;BME280;49700;48.072;7.800;2022-10-26T07:59:46;99712.09;;;15.54;nan
63556;BME280;49700;48.072;7.800;2022-10-26T08:02:11;99722.16;;;15.60;nan
63556;BME280;49700;48.072;7.800;2022-10-26T08:04:37;99718.06;;;15.67;nan
63556;BME280;49700;48.072;7.800;2022-10-26T08:07:02;99716.72;;;15.73;nan
63556;BME280;49700;48.072;7.800;2022-10-26T08:09:28;99720.56;;;15.80;nan
63556;BME280;49700;48.072;7.800;2022-10-26T08:11:53;99716.41;;;15.87;nan
63556;BME280;49700;48.072;7.800;2022-10-26T08:14:18;99721.19;;;15.93;nan
63556;BME280;49700;48.072;7.800;2022-10-26T08:16:44;99728.63;;;15.99;nan
63556;BME280;49700;48.072;7.800;2022-10-26T08:19:10;99721.00;;;16.06;nan
63556;BME280;49700;48.072;7.800;2022-10-26T08:21:35;99723.00;;;16.13;nan
63556;BME280;49700;48.072;7.800;2022-10-26T08:24:00;99720.66;;;16.20;nan
63556;BME280;49700;48.072;7.800;2022-10-26T08:26:26;99723.75;;;16.25;nan
63556;BME280;49700;48.072;7.800;2022-10-26T08:28:51;99722.38;;;16.31;nan
63556;BME280;49700;48.072;7.800;2022-10-26T08:31:17;99728.13;;;16.36;nan
63556;BME280;49700;48.072;7.800;2022-10-26T08:33:42;99735.69;;;16.41;nan
63556;BME280;49700;48.072;7.800;2022-10-26T08:36:07;99735.31;;;16.45;nan
63556;BME280;49700;48.072;7.800;2022-10-26T08:38:33;99723.47;;;16.49;nan
63556;BME280;49700;48.072;7.800;2022-10-26T08:41:05;99731.75;;;16.56;nan
63556;BME280;49700;48.072;7.800;2022-10-26T08:43:40;99732.03;;;16.63;nan
63556;BME280;49700;48.072;7.800;2022-10-26T08:46:12;99735.13;;;16.68;nan
63556;BME280;49700;48.072;7.800;2022-10-26T08:48:43;99740.59;;;16.76;nan
63556;BME280;49700;48.072;7.800;2022-10-26T08:51:16;99741.91;;;16.81;nan
63556;BME280;49700;48.072;7.800;2022-10-26T08:53:49;99748.50;;;16.87;nan
63556;BME280;49700;48.072;7.800;2022-10-26T08:56:20;99740.97;;;16.92;nan
63556;BME280;49700;48.072;7.800;2022-10-26T08:59:08;99742.38;;;16.96;nan
63556;BME280;49700;48.072;7.800;2022-10-26T09:01:36;99741.28;;;16.99;nan
63556;BME280;49700;48.072;7.800;2022-10-26T09:04:02;99745.47;;;17.01;nan
63556;BME280;49700;48.072;7.800;2022-10-26T09:09:17;99750.94;;;17.10;nan
63556;BME280;49700;48.072;7.800;2022-10-26T09:12:39;99759.47;;;17.13;nan
63556;BME280;49700;48.072;7.800;2022-10-26T09:15:18;99750.00;;;17.20;nan
63556;BME280;49700;48.072;7.800;2022-10-26T09:17:50;99761.72;;;17.28;nan
63556;BME280;49700;48.072;7.800;2022-10-26T09:25:53;99759.53;;;17.62;nan
63556;BME280;49700;48.072;7.800;2022-10-26T09:28:22;99757.44;;;17.75;nan
63556;BME280;49700;48.072;7.800;2022-10-26T09:30:47;99765.84;;;17.90;nan
63556;BME280;49700;48.072;7.800;2022-10-26T09:33:23;99762.09;;;18.02;nan
63556;BME280;49700;48.072;7.800;2022-10-26T09:35:56;99763.47;;;18.16;nan
63556;BME280;49700;48.072;7.800;2022-10-26T09:38:35;99761.75;;;18.34;nan
63556;BME280;49700;48.072;7.800;2022-10-26T09:41:12;99761.97;;;18.61;nan
63556;BME280;49700;48.072;7.800;2022-10-26T09:43:47;99768.56;;;18.94;nan
63556;BME280;49700;48.072;7.800;2022-10-26T09:46:20;99764.72;;;19.34;nan
63556;BME280;49700;48.072;7.800;2022-10-26T09:48:50;99773.97;;;19.75;nan
63556;BME280;49700;48.072;7.800;2022-10-26T09:51:18;99767.56;;;20.04;nan
63556;BME280;49700;48.072;7.800;2022-10-26T09:53:44;99769.88;;;20.25;nan
63556;BME280;49700;48.072;7.800;2022-10-26T09:56:11;99779.50;;;20.44;nan
63556;BME280;49700;48.072;7.800;2022-10-26T09:58:43;99780.16;;;20.64;nan
63556;BME280;49700;48.072;7.800;2022-10-26T10:01:29;99790.59;;;20.83;nan
63556;BME280;49700;48.072;7.800;2022-10-26T10:09:25;99783.88;;;21.56;nan
63556;BME280;49700;48.072;7.800;2022-10-26T10:11:56;99788.22;;;21.65;nan
63556;BME280;49700;48.072;7.800;2022-10-26T10:14:53;99790.56;;;21.68;nan
63556;BME280;49700;48.072;7.800;2022-10-26T10:17:20;99795.28;;;21.66;nan
63556;BME280;49700;48.072;7.800;2022-10-26T10:19:46;99798.59;;;21.68;nan
63556;BME280;49700;48.072;7.800;2022-10-26T10:24:56;99795.44;;;21.81;nan
63556;BME280;49700;48.072;7.800;2022-10-26T10:27:23;99792.28;;;21.94;nan
63556;BME280;49700;48.072;7.800;2022-10-26T10:29:54;99788.78;;;22.09;nan
63556;BME280;49700;48.072;7.800;2022-10-26T10:32:22;99789.28;;;22.21;nan
63556;BME280;49700;48.072;7.800;2022-10-26T10:34:49;99794.66;;;22.29;nan
63556;BME280;49700;48.072;7.800;2022-10-26T10:39:48;99796.44;;;22.53;nan
63556;BME280;49700;48.072;7.800;2022-10-26T10:42:22;99798.09;;;22.63;nan
63556;BME280;49700;48.072;7.800;2022-10-26T10:44:51;99805.94;;;22.72;nan
63556;BME280;49700;48.072;7.800;2022-10-26T10:47:28;99800.09;;;22.77;nan
63556;BME280;49700;48.072;7.800;2022-10-26T10:50:26;99808.47;;;22.74;nan
63556;BME280;49700;48.072;7.800;2022-10-26T10:52:53;99802.25;;;22.73;nan
63556;BME280;49700;48.072;7.800;2022-10-26T10:55:20;99812.47;;;22.78;nan
63556;BME280;49700;48.072;7.800;2022-10-26T11:00:35;99820.78;;;22.91;nan
63556;BME280;49700;48.072;7.800;2022-10-26T11:06:00;99814.25;;;23.02;nan
63556;BME280;49700;48.072;7.800;2022-10-26T11:14:09;99815.47;;;22.83;nan
63556;BME280;49700;48.072;7.800;2022-10-26T11:16:39;99817.13;;;22.84;nan
63556;BME280;49700;48.072;7.800;2022-10-26T11:21:42;99810.44;;;22.96;nan
63556;BME280;49700;48.072;7.800;2022-10-26T11:29:49;99812.34;;;23.19;nan
63556;BME280;49700;48.072;7.800;2022-10-26T11:37:54;99812.97;;;23.29;nan
63556;BME280;49700;48.072;7.800;2022-10-26T11:45:29;99812.47;;;23.34;nan
63556;BME280;49700;48.072;7.800;2022-10-26T11:48:26;99819.66;;;23.33;nan
63556;BME280;49700;48.072;7.800;2022-10-26T11:50:55;99819.84;;;23.32;nan
63556;BME280;49700;48.072;7.800;2022-10-26T11:53:28;99815.66;;;23.29;nan
63556;BME280;49700;48.072;7.800;2022-10-26T11:55:57;99817.50;;;23.29;nan
63556;BME280;49700;48.072;7.800;2022-10-26T11:58:25;99805.59;;;23.31;nan
63556;BME280;49700;48.072;7.800;2022-10-26T12:00:59;99812.47;;;23.34;nan
63556;BME280;49700;48.072;7.800;2022-10-26T12:03:34;99812.81;;;23.31;nan
63556;BME280;49700;48.072;7.800;2022-10-26T12:06:01;99811.66;;;23.25;nan
63556;BME280;49700;48.072;7.800;2022-10-26T12:08:30;99818.69;;;23.26;nan
63556;BME280;49700;48.072;7.800;2022-10-26T12:17:10;99823.44;;;23.47;nan
63556;BME280;49700;48.072;7.800;2022-10-26T12:22:03;99823.41;;;23.55;nan
63556;BME280;49700;48.072;7.800;2022-10-26T12:24:30;99823.41;;;23.55;nan
63556;BME280;49700;48.072;7.800;2022-10-26T12:27:04;99815.81;;;23.59;nan
63556;BME280;49700;48.072;7.800;2022-10-26T12:29:36;99821.38;;;23.57;nan
63556;BME280;49700;48.072;7.800;2022-10-26T12:37:29;99824.34;;;23.62;nan
63556;BME280;49700;48.072;7.800;2022-10-26T12:42:56;99819.50;;;23.66;nan
63556;BME280;49700;48.072;7.800;2022-10-26T12:45:22;99818.28;;;23.69;nan
63556;BME280;49700;48.072;7.800;2022-10-26T13:00:23;99826.50;;;23.75;nan
63556;BME280;49700;48.072;7.800;2022-10-26T13:03:11;99841.59;;;23.76;nan
63556;BME280;49700;48.072;7.800;2022-10-26T13:08:51;99837.06;;;23.77;nan
63556;BME280;49700;48.072;7.800;2022-10-26T13:14:26;99836.69;;;23.80;nan
63556;BME280;49700;48.072;7.800;2022-10-26T13:16:53;99838.00;;;23.84;nan
63556;BME280;49700;48.072;7.800;2022-10-26T13:19:43;99834.31;;;23.85;nan
63556;BME280;49700;48.072;7.800;2022-10-26T13:22:13;99842.00;;;23.88;nan
63556;BME280;49700;48.072;7.800;2022-10-26T13:24:46;99841.19;;;23.88;nan
63556;BME280;49700;48.072;7.800;2022-10-26T13:30:18;99839.47;;;23.87;nan
63556;BME280;49700;48.072;7.800;2022-10-26T13:32:55;99840.66;;;23.84;nan
63556;BME280;49700;48.072;7.800;2022-10-26T13:35:23;99834.13;;;23.87;nan
63556;BME280;49700;48.072;7.800;2022-10-26T13:37:50;99840.16;;;23.89;nan
63556;BME280;49700;48.072;7.800;2022-10-26T13:40:26;99843.50;;;23.91;nan
63556;BME280;49700;48.072;7.800;2022-10-26T13:42:56;99841.81;;;23.90;nan
63556;BME280;49700;48.072;7.800;2022-10-26T13:45:31;99836.44;;;23.90;nan
63556;BME280;49700;48.072;7.800;2022-10-26T13:48:01;99840.81;;;23.91;nan
63556;BME280;49700;48.072;7.800;2022-10-26T13:50:37;99831.94;;;23.90;nan
63556;BME280;49700;48.072;7.800;2022-10-26T13:53:07;99830.25;;;23.89;nan
63556;BME280;49700;48.072;7.800;2022-10-26T13:56:02;99826.91;;;23.87;nan
63556;BME280;49700;48.072;7.800;2022-10-26T13:58:36;99836.63;;;23.88;nan
63556;BME280;49700;48.072;7.800;2022-10-26T14:01:17;99826.72;;;23.89;nan
63556;BME280;49700;48.072;7.800;2022-10-26T14:03:46;99829.41;;;23.89;nan
63556;BME280;49700;48.072;7.800;2022-10-26T14:06:17;99835.81;;;23.88;nan
63556;BME280;49700;48.072;7.800;2022-10-26T14:08:45;99838.00;;;23.84;nan
63556;BME280;49700;48.072;7.800;2022-10-26T14:11:17;99844.75;;;23.80;nan
63556;BME280;49700;48.072;7.800;2022-10-26T14:13:45;99853.97;;;23.77;nan
63556;BME280;49700;48.072;7.800;2022-10-26T14:16:14;99842.09;;;23.72;nan
63556;BME280;49700;48.072;7.800;2022-10-26T14:18:41;99852.63;;;23.73;nan
63556;BME280;49700;48.072;7.800;2022-10-26T14:21:12;99847.47;;;23.72;nan
63556;BME280;49700;48.072;7.800;2022-10-26T14:23:50;99850.47;;;23.69;nan
63556;BME280;49700;48.072;7.800;2022-10-26T14:26:29;99858.69;;;23.67;nan
63556;BME280;49700;48.072;7.800;2022-10-26T14:28:58;99856.00;;;23.67;nan
63556;BME280;49700;48.072;7.800;2022-10-26T14:31:31;99850.84;;;23.66;nan
63556;BME280;49700;48.072;7.800;2022-10-26T14:33:59;99857.84;;;23.67;nan
63556;BME280;49700;48.072;7.800;2022-10-26T14:36:32;99865.25;;;23.64;nan
63556;BME280;49700;48.072;7.800;2022-10-26T14:39:11;99860.06;;;23.63;nan
63556;BME280;49700;48.072;7.800;2022-10-26T14:41:39;99856.06;;;23.59;nan
63556;BME280;49700;48.072;7.800;2022-10-26T14:44:15;99864.28;;;23.57;nan
63556;BME280;49700;48.072;7.800;2022-10-26T14:46:42;99863.78;;;23.54;nan
63556;BME280;49700;48.072;7.800;2022-10-26T14:49:16;99872.03;;;23.52;nan
63556;BME280;49700;48.072;7.800;2022-10-26T14:51:43;99870.69;;;23.48;nan
63556;BME280;49700;48.072;7.800;2022-10-26T14:54:20;99873.25;;;23.41;nan
63556;BME280;49700;48.072;7.800;2022-10-26T14:56:47;99864.88;;;23.36;nan
63556;BME280;49700;48.072;7.800;2022-10-26T14:59:27;99874.94;;;23.34;nan
63556;BME280;49700;48.072;7.800;2022-10-26T15:02:18;99872.78;;;23.30;nan
63556;BME280;49700;48.072;7.800;2022-10-26T15:05:00;99873.13;;;23.27;nan
63556;BME280;49700;48.072;7.800;2022-10-26T15:07:36;99873.81;;;23.21;nan
63556;BME280;49700;48.072;7.800;2022-10-26T15:10:04;99870.97;;;23.14;nan
63556;BME280;49700;48.072;7.800;2022-10-26T15:12:37;99868.00;;;23.09;nan
63556;BME280;49700;48.072;7.800;2022-10-26T15:18:00;99880.22;;;22.95;nan
63556;BME280;49700;48.072;7.800;2022-10-26T15:20:27;99884.59;;;22.88;nan
63556;BME280;49700;48.072;7.800;2022-10-26T15:22:58;99885.78;;;22.85;nan
63556;BME280;49700;48.072;7.800;2022-10-26T15:25:32;99904.19;;;22.80;nan
63556;BME280;49700;48.072;7.800;2022-10-26T15:36:22;99897.34;;;22.61;nan
63556;BME280;49700;48.072;7.800;2022-10-26T15:38:48;99912.91;;;22.58;nan
63556;BME280;49700;48.072;7.800;2022-10-26T15:43:50;99907.56;;;22.49;nan
63556;BME280;49700;48.072;7.800;2022-10-26T15:46:16;99905.19;;;22.46;nan
63556;BME280;49700;48.072;7.800;2022-10-26T15:48:42;99910.75;;;22.45;nan
63556;BME280;49700;48.072;7.800;2022-10-26T15:51:11;99917.06;;;22.44;nan
63556;BME280;49700;48.072;7.800;2022-10-26T15:53:41;99912.75;;;22.43;nan
63556;BME280;49700;48.072;7.800;2022-10-26T15:56:14;99915.91;;;22.38;nan
63556;BME280;49700;48.072;7.800;2022-10-26T15:58:41;99918.22;;;22.33;nan